sensor_id;sensor_type;location;lat;lon;timestamp;temperature;humidity
68274;SHT30;55104;47.356;19.448;2022-08-18T00:01:05;23.36;63.49
68274;SHT30;55104;47.356;19.448;2022-08-18T00:04:09;23.40;63.80
68274;SHT30;55104;47.356;19.448;2022-08-18T00:07:32;23.39;64.06
68274;SHT30;55104;47.356;19.448;2022-08-18T00:10:34;23.45;64.32
68274;SHT30;55104;47.356;19.448;2022-08-18T00:13:36;23.40;64.82
68274;SHT30;55104;47.356;19.448;2022-08-18T00:16:38;23.47;65.29
68274;SHT30;55104;47.356;19.448;2022-08-18T00:19:41;23.38;65.36
68274;SHT30;55104;47.356;19.448;2022-08-18T00:22:48;23.46;65.90
68274;SHT30;55104;47.356;19.448;2022-08-18T00:25:50;23.50;65.99
68274;SHT30;55104;47.356;19.448;2022-08-18T00:28:52;23.49;66.28
68274;SHT30;55104;47.356;19.448;2022-08-18T00:31:55;23.46;66.54
68274;SHT30;55104;47.356;19.448;2022-08-18T00:34:57;23.39;66.61
68274;SHT30;55104;47.356;19.448;2022-08-18T00:38:07;23.32;66.91
68274;SHT30;55104;47.356;19.448;2022-08-18T00:41:24;23.27;66.90
68274;SHT30;55104;47.356;19.448;2022-08-18T00:44:27;23.19;67.38
68274;SHT30;55104;47.356;19.448;2022-08-18T00:47:29;23.15;67.70
68274;SHT30;55104;47.356;19.448;2022-08-18T00:50:49;23.15;67.89
68274;SHT30;55104;47.356;19.448;2022-08-18T00:57:07;23.18;68.44
68274;SHT30;55104;47.356;19.448;2022-08-18T01:00:10;23.20;68.19
68274;SHT30;55104;47.356;19.448;2022-08-18T01:03:16;23.12;68.19
68274;SHT30;55104;47.356;19.448;2022-08-18T01:06:30;23.06;68.39
68274;SHT30;55104;47.356;19.448;2022-08-18T01:09:34;23.01;68.64
68274;SHT30;55104;47.356;19.448;2022-08-18T01:12:36;22.98;68.75
68274;SHT30;55104;47.356;19.448;2022-08-18T01:15:47;22.92;68.96
68274;SHT30;55104;47.356;19.448;2022-08-18T01:18:49;22.92;69.38
68274;SHT30;55104;47.356;19.448;2022-08-18T01:22:36;22.83;69.71
68274;SHT30;55104;47.356;19.448;2022-08-18T01:25:40;22.78;70.28
68274;SHT30;55104;47.356;19.448;2022-08-18T01:29:06;22.71;70.27
68274;SHT30;55104;47.356;19.448;2022-08-18T01:32:22;22.65;70.66
68274;SHT30;55104;47.356;19.448;2022-08-18T01:35:25;22.53;71.02
68274;SHT30;55104;47.356;19.448;2022-08-18T01:38:28;22.50;71.03
68274;SHT30;55104;47.356;19.448;2022-08-18T01:41:33;22.46;71.66
68274;SHT30;55104;47.356;19.448;2022-08-18T01:44:35;22.49;72.03
68274;SHT30;55104;47.356;19.448;2022-08-18T01:47:37;22.44;72.06
68274;SHT30;55104;47.356;19.448;2022-08-18T01:50:49;22.49;72.46
68274;SHT30;55104;47.356;19.448;2022-08-18T01:53:51;22.51;72.49
68274;SHT30;55104;47.356;19.448;2022-08-18T01:56:53;22.47;72.55
68274;SHT30;55104;47.356;19.448;2022-08-18T01:59:55;22.47;72.50
68274;SHT30;55104;47.356;19.448;2022-08-18T02:03:05;22.40;72.55
68274;SHT30;55104;47.356;19.448;2022-08-18T02:06:13;22.44;72.58
68274;SHT30;55104;47.356;19.448;2022-08-18T02:09:15;22.37;72.74
68274;SHT30;55104;47.356;19.448;2022-08-18T02:12:25;22.28;73.20
68274;SHT30;55104;47.356;19.448;2022-08-18T02:15:27;22.23;73.42
68274;SHT30;55104;47.356;19.448;2022-08-18T02:18:33;22.13;73.76
68274;SHT30;55104;47.356;19.448;2022-08-18T02:21:52;22.08;74.17
68274;SHT30;55104;47.356;19.448;2022-08-18T02:24:56;22.06;74.26
68274;SHT30;55104;47.356;19.448;2022-08-18T02:27:58;22.03;74.20
68274;SHT30;55104;47.356;19.448;2022-08-18T02:31:12;22.02;74.53
68274;SHT30;55104;47.356;19.448;2022-08-18T02:34:16;22.02;74.30
68274;SHT30;55104;47.356;19.448;2022-08-18T02:37:18;21.89;75.06
68274;SHT30;55104;47.356;19.448;2022-08-18T02:40:20;21.85;75.13
68274;SHT30;55104;47.356;19.448;2022-08-18T02:43:23;21.81;75.35
68274;SHT30;55104;47.356;19.448;2022-08-18T02:46:25;21.85;75.45
68274;SHT30;55104;47.356;19.448;2022-08-18T02:49:32;21.81;75.57
68274;SHT30;55104;47.356;19.448;2022-08-18T02:52:34;21.84;75.34
68274;SHT30;55104;47.356;19.448;2022-08-18T02:55:36;21.81;75.64
68274;SHT30;55104;47.356;19.448;2022-08-18T02:58:38;21.75;75.87
68274;SHT30;55104;47.356;19.448;2022-08-18T03:01:44;21.78;76.04
68274;SHT30;55104;47.356;19.448;2022-08-18T03:04:46;21.79;76.00
68274;SHT30;55104;47.356;19.448;2022-08-18T03:07:49;21.77;76.14
68274;SHT30;55104;47.356;19.448;2022-08-18T03:10:52;21.78;76.09
68274;SHT30;55104;47.356;19.448;2022-08-18T03:13:55;21.75;76.16
68274;SHT30;55104;47.356;19.448;2022-08-18T03:16:57;21.74;76.04
68274;SHT30;55104;47.356;19.448;2022-08-18T03:20:01;21.68;76.28
68274;SHT30;55104;47.356;19.448;2022-08-18T03:23:04;21.67;76.63
68274;SHT30;55104;47.356;19.448;2022-08-18T03:26:13;21.62;76.50
68274;SHT30;55104;47.356;19.448;2022-08-18T03:29:15;21.59;76.75
68274;SHT30;55104;47.356;19.448;2022-08-18T03:32:17;21.54;77.18
68274;SHT30;55104;47.356;19.448;2022-08-18T03:35:19;21.55;77.12
68274;SHT30;55104;47.356;19.448;2022-08-18T03:38:21;21.51;77.50
68274;SHT30;55104;47.356;19.448;2022-08-18T03:41:26;21.55;77.16
68274;SHT30;55104;47.356;19.448;2022-08-18T03:44:48;21.54;77.30
68274;SHT30;55104;47.356;19.448;2022-08-18T03:47:50;21.51;77.41
68274;SHT30;55104;47.356;19.448;2022-08-18T03:50:54;21.47;77.43
68274;SHT30;55104;47.356;19.448;2022-08-18T03:53:58;21.43;77.76
68274;SHT30;55104;47.356;19.448;2022-08-18T03:57:01;21.40;77.53
68274;SHT30;55104;47.356;19.448;2022-08-18T04:00:03;21.36;78.17
68274;SHT30;55104;47.356;19.448;2022-08-18T04:03:06;21.44;77.93
68274;SHT30;55104;47.356;19.448;2022-08-18T04:06:20;21.48;77.94
68274;SHT30;55104;47.356;19.448;2022-08-18T04:09:32;21.54;77.58
68274;SHT30;55104;47.356;19.448;2022-08-18T04:12:35;21.51;78.04
68274;SHT30;55104;47.356;19.448;2022-08-18T04:15:40;21.53;78.21
68274;SHT30;55104;47.356;19.448;2022-08-18T04:18:42;21.59;78.43
68274;SHT30;55104;47.356;19.448;2022-08-18T04:21:45;21.74;77.94
68274;SHT30;55104;47.356;19.448;2022-08-18T04:24:47;21.78;77.90
68274;SHT30;55104;47.356;19.448;2022-08-18T04:27:52;21.88;77.79
68274;SHT30;55104;47.356;19.448;2022-08-18T04:30:58;21.91;77.77
68274;SHT30;55104;47.356;19.448;2022-08-18T04:34:11;22.02;77.29
68274;SHT30;55104;47.356;19.448;2022-08-18T04:37:15;22.08;77.09
68274;SHT30;55104;47.356;19.448;2022-08-18T04:40:17;22.10;76.95
68274;SHT30;55104;47.356;19.448;2022-08-18T04:43:25;22.20;76.70
68274;SHT30;55104;47.356;19.448;2022-08-18T04:46:28;22.20;76.74
68274;SHT30;55104;47.356;19.448;2022-08-18T04:49:30;22.26;76.59
68274;SHT30;55104;47.356;19.448;2022-08-18T04:52:34;22.35;76.31
68274;SHT30;55104;47.356;19.448;2022-08-18T04:55:55;22.44;76.05
68274;SHT30;55104;47.356;19.448;2022-08-18T05:02:07;22.63;75.39
68274;SHT30;55104;47.356;19.448;2022-08-18T05:05:15;22.72;75.18
68274;SHT30;55104;47.356;19.448;2022-08-18T05:08:17;22.79;74.85
68274;SHT30;55104;47.356;19.448;2022-08-18T05:11:21;22.88;74.49
68274;SHT30;55104;47.356;19.448;2022-08-18T05:14:23;22.95;74.23
68274;SHT30;55104;47.356;19.448;2022-08-18T05:17:25;23.05;73.91
68274;SHT30;55104;47.356;19.448;2022-08-18T05:20:31;23.11;73.70
68274;SHT30;55104;47.356;19.448;2022-08-18T05:23:33;23.15;73.50
68274;SHT30;55104;47.356;19.448;2022-08-18T05:26:36;23.24;73.28
68274;SHT30;55104;47.356;19.448;2022-08-18T05:29:38;23.34;72.88
68274;SHT30;55104;47.356;19.448;2022-08-18T05:32:46;23.47;72.66
68274;SHT30;55104;47.356;19.448;2022-08-18T05:36:00;23.54;72.21
68274;SHT30;55104;47.356;19.448;2022-08-18T05:42:25;23.78;71.37
68274;SHT30;55104;47.356;19.448;2022-08-18T05:45:29;23.88;70.84
68274;SHT30;55104;47.356;19.448;2022-08-18T05:48:32;23.98;70.73
68274;SHT30;55104;47.356;19.448;2022-08-18T05:51:43;24.05;70.03
68274;SHT30;55104;47.356;19.448;2022-08-18T05:54:49;24.16;69.58
68274;SHT30;55104;47.356;19.448;2022-08-18T05:58:20;24.33;69.07
68274;SHT30;55104;47.356;19.448;2022-08-18T06:01:28;24.40;68.52
68274;SHT30;55104;47.356;19.448;2022-08-18T06:04:48;24.39;68.31
68274;SHT30;55104;47.356;19.448;2022-08-18T06:08:00;24.61;68.06
68274;SHT30;55104;47.356;19.448;2022-08-18T06:11:03;24.86;67.48
68274;SHT30;55104;47.356;19.448;2022-08-18T06:14:05;25.01;66.57
68274;SHT30;55104;47.356;19.448;2022-08-18T06:17:34;25.11;65.94
68274;SHT30;55104;47.356;19.448;2022-08-18T06:24:25;25.41;63.92
68274;SHT30;55104;47.356;19.448;2022-08-18T06:31:02;25.87;63.21
68274;SHT30;55104;47.356;19.448;2022-08-18T06:34:11;26.08;62.09
68274;SHT30;55104;47.356;19.448;2022-08-18T06:37:22;26.24;60.73
68274;SHT30;55104;47.356;19.448;2022-08-18T06:40:27;26.38;59.62
68274;SHT30;55104;47.356;19.448;2022-08-18T06:43:30;26.51;58.89
68274;SHT30;55104;47.356;19.448;2022-08-18T06:47:00;26.77;58.54
68274;SHT30;55104;47.356;19.448;2022-08-18T06:53:16;26.88;58.90
68274;SHT30;55104;47.356;19.448;2022-08-18T06:59:36;27.27;57.51
68274;SHT30;55104;47.356;19.448;2022-08-18T07:02:44;27.38;57.34
68274;SHT30;55104;47.356;19.448;2022-08-18T07:06:22;27.52;55.62
68274;SHT30;55104;47.356;19.448;2022-08-18T07:09:33;27.74;55.41
68274;SHT30;55104;47.356;19.448;2022-08-18T07:12:36;27.82;55.14
68274;SHT30;55104;47.356;19.448;2022-08-18T07:15:38;27.97;55.33
68274;SHT30;55104;47.356;19.448;2022-08-18T07:18:41;28.13;54.29
68274;SHT30;55104;47.356;19.448;2022-08-18T07:21:44;28.29;54.66
68274;SHT30;55104;47.356;19.448;2022-08-18T07:24:49;28.47;53.02
68274;SHT30;55104;47.356;19.448;2022-08-18T07:27:52;28.34;53.58
68274;SHT30;55104;47.356;19.448;2022-08-18T07:34:30;28.61;53.11
68274;SHT30;55104;47.356;19.448;2022-08-18T07:37:44;28.75;53.32
68274;SHT30;55104;47.356;19.448;2022-08-18T07:44:19;29.31;51.95
68274;SHT30;55104;47.356;19.448;2022-08-18T07:47:27;29.65;52.19
68274;SHT30;55104;47.356;19.448;2022-08-18T08:01:20;30.16;51.03
68274;SHT30;55104;47.356;19.448;2022-08-18T08:07:57;30.10;48.91
68274;SHT30;55104;47.356;19.448;2022-08-18T08:11:17;30.44;49.10
68274;SHT30;55104;47.356;19.448;2022-08-18T08:14:38;30.62;48.72
68274;SHT30;55104;47.356;19.448;2022-08-18T08:17:54;30.75;48.54
68274;SHT30;55104;47.356;19.448;2022-08-18T08:21:09;30.83;47.72
68274;SHT30;55104;47.356;19.448;2022-08-18T08:24:19;30.92;48.23
68274;SHT30;55104;47.356;19.448;2022-08-18T08:31:07;31.33;46.26
68274;SHT30;55104;47.356;19.448;2022-08-18T08:34:49;31.25;45.59
68274;SHT30;55104;47.356;19.448;2022-08-18T08:37:56;31.44;45.38
68274;SHT30;55104;47.356;19.448;2022-08-18T08:41:13;31.68;45.39
68274;SHT30;55104;47.356;19.448;2022-08-18T08:44:41;31.86;44.53
68274;SHT30;55104;47.356;19.448;2022-08-18T08:48:15;31.92;44.51
68274;SHT30;55104;47.356;19.448;2022-08-18T08:51:38;32.15;43.78
68274;SHT30;55104;47.356;19.448;2022-08-18T08:55:04;32.29;43.04
68274;SHT30;55104;47.356;19.448;2022-08-18T09:12:01;32.75;41.94
68274;SHT30;55104;47.356;19.448;2022-08-18T09:18:38;33.12;41.04
68274;SHT30;55104;47.356;19.448;2022-08-18T09:21:59;33.19;41.02
68274;SHT30;55104;47.356;19.448;2022-08-18T09:25:08;33.35;37.93
68274;SHT30;55104;47.356;19.448;2022-08-18T09:28:21;33.74;37.65
68274;SHT30;55104;47.356;19.448;2022-08-18T09:31:27;33.50;38.84
68274;SHT30;55104;47.356;19.448;2022-08-18T09:38:15;34.04;36.63
68274;SHT30;55104;47.356;19.448;2022-08-18T09:41:57;34.22;36.77
68274;SHT30;55104;47.356;19.448;2022-08-18T09:48:38;34.42;36.78
68274;SHT30;55104;47.356;19.448;2022-08-18T09:51:44;33.94;36.06
68274;SHT30;55104;47.356;19.448;2022-08-18T10:04:38;34.80;36.38
68274;SHT30;55104;47.356;19.448;2022-08-18T10:15:17;35.44;34.42
68274;SHT30;55104;47.356;19.448;2022-08-18T10:24:59;35.23;32.83
68274;SHT30;55104;47.356;19.448;2022-08-18T10:34:59;35.96;32.85
68274;SHT30;55104;47.356;19.448;2022-08-18T10:38:12;36.34;32.74
68274;SHT30;55104;47.356;19.448;2022-08-18T10:41:24;35.89;31.28
68274;SHT30;55104;47.356;19.448;2022-08-18T10:44:36;36.06;31.70
68274;SHT30;55104;47.356;19.448;2022-08-18T10:47:43;36.20;32.03
68274;SHT30;55104;47.356;19.448;2022-08-18T11:04:34;36.78;29.64
68274;SHT30;55104;47.356;19.448;2022-08-18T11:07:39;36.82;29.85
68274;SHT30;55104;47.356;19.448;2022-08-18T11:10:47;36.80;29.96
68274;SHT30;55104;47.356;19.448;2022-08-18T11:21:24;36.47;29.94
68274;SHT30;55104;47.356;19.448;2022-08-18T11:24:32;36.95;29.53
68274;SHT30;55104;47.356;19.448;2022-08-18T11:27:44;37.31;28.95
68274;SHT30;55104;47.356;19.448;2022-08-18T11:30:53;37.45;27.92
68274;SHT30;55104;47.356;19.448;2022-08-18T11:33:57;37.13;28.30
68274;SHT30;55104;47.356;19.448;2022-08-18T11:37:01;37.44;28.73
68274;SHT30;55104;47.356;19.448;2022-08-18T11:43:45;37.50;26.69
68274;SHT30;55104;47.356;19.448;2022-08-18T11:46:55;37.57;26.62
68274;SHT30;55104;47.356;19.448;2022-08-18T11:50:11;37.44;25.81
68274;SHT30;55104;47.356;19.448;2022-08-18T11:53:34;37.22;26.80
68274;SHT30;55104;47.356;19.448;2022-08-18T11:56:39;37.38;26.93
68274;SHT30;55104;47.356;19.448;2022-08-18T11:59:41;36.96;26.46
68274;SHT30;55104;47.356;19.448;2022-08-18T12:03:02;37.35;26.01
68274;SHT30;55104;47.356;19.448;2022-08-18T12:06:32;37.45;27.23
68274;SHT30;55104;47.356;19.448;2022-08-18T12:09:46;37.04;28.44
68274;SHT30;55104;47.356;19.448;2022-08-18T12:13:09;37.23;27.69
68274;SHT30;55104;47.356;19.448;2022-08-18T12:19:54;37.27;27.32
68274;SHT30;55104;47.356;19.448;2022-08-18T12:23:00;37.34;27.89
68274;SHT30;55104;47.356;19.448;2022-08-18T12:26:02;37.53;28.29
68274;SHT30;55104;47.356;19.448;2022-08-18T12:29:04;37.82;27.81
68274;SHT30;55104;47.356;19.448;2022-08-18T12:32:12;37.58;27.79
68274;SHT30;55104;47.356;19.448;2022-08-18T12:35:34;37.61;28.64
68274;SHT30;55104;47.356;19.448;2022-08-18T12:38:38;36.79;28.13
68274;SHT30;55104;47.356;19.448;2022-08-18T12:41:43;37.41;29.11
68274;SHT30;55104;47.356;19.448;2022-08-18T12:44:46;37.41;29.13
68274;SHT30;55104;47.356;19.448;2022-08-18T12:47:49;37.40;29.10
68274;SHT30;55104;47.356;19.448;2022-08-18T12:50:51;37.13;28.16
68274;SHT30;55104;47.356;19.448;2022-08-18T12:53:59;37.45;29.39
68274;SHT30;55104;47.356;19.448;2022-08-18T12:57:04;37.57;28.39
68274;SHT30;55104;47.356;19.448;2022-08-18T13:00:09;36.69;27.82
68274;SHT30;55104;47.356;19.448;2022-08-18T13:03:19;36.92;29.90
68274;SHT30;55104;47.356;19.448;2022-08-18T13:06:22;37.19;29.47
68274;SHT30;55104;47.356;19.448;2022-08-18T13:09:30;37.33;28.78
68274;SHT30;55104;47.356;19.448;2022-08-18T13:12:49;37.38;29.53
68274;SHT30;55104;47.356;19.448;2022-08-18T13:15:51;37.47;28.52
68274;SHT30;55104;47.356;19.448;2022-08-18T13:18:59;37.19;28.88
68274;SHT30;55104;47.356;19.448;2022-08-18T13:22:06;37.38;29.33
68274;SHT30;55104;47.356;19.448;2022-08-18T13:25:14;37.37;29.33
68274;SHT30;55104;47.356;19.448;2022-08-18T13:28:36;37.41;29.36
68274;SHT30;55104;47.356;19.448;2022-08-18T13:31:58;37.58;29.04
68274;SHT30;55104;47.356;19.448;2022-08-18T13:35:00;37.62;29.73
68274;SHT30;55104;47.356;19.448;2022-08-18T13:38:15;37.61;29.10
68274;SHT30;55104;47.356;19.448;2022-08-18T13:41:26;37.53;29.23
68274;SHT30;55104;47.356;19.448;2022-08-18T13:44:33;37.29;29.74
68274;SHT30;55104;47.356;19.448;2022-08-18T13:47:35;37.33;29.48
68274;SHT30;55104;47.356;19.448;2022-08-18T13:50:39;37.07;28.47
68274;SHT30;55104;47.356;19.448;2022-08-18T13:53:42;36.89;28.34
68274;SHT30;55104;47.356;19.448;2022-08-18T13:57:00;36.83;29.23
68274;SHT30;55104;47.356;19.448;2022-08-18T14:00:05;36.83;28.29
68274;SHT30;55104;47.356;19.448;2022-08-18T14:03:18;36.51;28.47
68274;SHT30;55104;47.356;19.448;2022-08-18T14:06:44;36.72;28.80
68274;SHT30;55104;47.356;19.448;2022-08-18T14:09:56;37.13;28.96
68274;SHT30;55104;47.356;19.448;2022-08-18T14:13:05;37.34;28.83
68274;SHT30;55104;47.356;19.448;2022-08-18T14:16:25;36.89;28.40
68274;SHT30;55104;47.356;19.448;2022-08-18T14:19:28;36.99;29.23
68274;SHT30;55104;47.356;19.448;2022-08-18T14:22:55;37.22;29.06
68274;SHT30;55104;47.356;19.448;2022-08-18T14:26:22;37.10;29.31
68274;SHT30;55104;47.356;19.448;2022-08-18T14:29:44;37.29;29.08
68274;SHT30;55104;47.356;19.448;2022-08-18T14:32:48;37.16;29.21
68274;SHT30;55104;47.356;19.448;2022-08-18T14:35:52;37.03;28.84
68274;SHT30;55104;47.356;19.448;2022-08-18T14:39:10;37.00;29.79
68274;SHT30;55104;47.356;19.448;2022-08-18T14:42:14;36.78;28.59
68274;SHT30;55104;47.356;19.448;2022-08-18T14:45:18;37.10;29.84
68274;SHT30;55104;47.356;19.448;2022-08-18T14:48:35;37.02;29.06
68274;SHT30;55104;47.356;19.448;2022-08-18T14:51:38;36.96;29.37
68274;SHT30;55104;47.356;19.448;2022-08-18T14:54:43;36.74;28.08
68274;SHT30;55104;47.356;19.448;2022-08-18T14:57:51;36.65;28.50
68274;SHT30;55104;47.356;19.448;2022-08-18T15:01:04;36.75;29.71
68274;SHT30;55104;47.356;19.448;2022-08-18T15:04:12;36.68;29.29
68274;SHT30;55104;47.356;19.448;2022-08-18T15:07:20;36.49;29.16
68274;SHT30;55104;47.356;19.448;2022-08-18T15:10:25;36.55;28.98
68274;SHT30;55104;47.356;19.448;2022-08-18T15:13:29;36.42;29.73
68274;SHT30;55104;47.356;19.448;2022-08-18T15:16:31;36.14;29.64
68274;SHT30;55104;47.356;19.448;2022-08-18T15:19:40;36.25;29.78
68274;SHT30;55104;47.356;19.448;2022-08-18T15:23:02;36.23;29.49
68274;SHT30;55104;47.356;19.448;2022-08-18T15:26:29;36.17;29.47
68274;SHT30;55104;47.356;19.448;2022-08-18T15:29:35;35.94;29.60
68274;SHT30;55104;47.356;19.448;2022-08-18T15:32:43;36.01;30.22
68274;SHT30;55104;47.356;19.448;2022-08-18T15:35:47;35.89;30.55
68274;SHT30;55104;47.356;19.448;2022-08-18T15:38:51;35.73;30.46
68274;SHT30;55104;47.356;19.448;2022-08-18T15:41:55;35.75;30.33
68274;SHT30;55104;47.356;19.448;2022-08-18T15:45:00;35.72;30.60
68274;SHT30;55104;47.356;19.448;2022-08-18T15:48:16;35.66;30.19
68274;SHT30;55104;47.356;19.448;2022-08-18T15:51:18;35.52;30.75
68274;SHT30;55104;47.356;19.448;2022-08-18T15:54:20;35.38;30.60
68274;SHT30;55104;47.356;19.448;2022-08-18T15:57:22;35.35;31.08
68274;SHT30;55104;47.356;19.448;2022-08-18T16:00:43;35.24;31.82
68274;SHT30;55104;47.356;19.448;2022-08-18T16:03:47;35.07;31.55
68274;SHT30;55104;47.356;19.448;2022-08-18T16:06:52;34.91;32.07
68274;SHT30;55104;47.356;19.448;2022-08-18T16:09:56;34.74;32.78
68274;SHT30;55104;47.356;19.448;2022-08-18T16:12:59;34.66;33.36
68274;SHT30;55104;47.356;19.448;2022-08-18T16:16:14;34.69;34.14
68274;SHT30;55104;47.356;19.448;2022-08-18T16:19:30;34.66;33.90
68274;SHT30;55104;47.356;19.448;2022-08-18T16:22:33;34.64;32.97
68274;SHT30;55104;47.356;19.448;2022-08-18T16:25:37;34.55;33.79
68274;SHT30;55104;47.356;19.448;2022-08-18T16:28:41;34.41;33.15
68274;SHT30;55104;47.356;19.448;2022-08-18T16:31:44;34.34;33.61
68274;SHT30;55104;47.356;19.448;2022-08-18T16:34:46;34.18;34.49
68274;SHT30;55104;47.356;19.448;2022-08-18T16:37:48;33.97;34.41
68274;SHT30;55104;47.356;19.448;2022-08-18T16:40:50;33.87;34.88
68274;SHT30;55104;47.356;19.448;2022-08-18T16:43:53;33.71;35.15
68274;SHT30;55104;47.356;19.448;2022-08-18T16:46:55;33.57;35.67
68274;SHT30;55104;47.356;19.448;2022-08-18T16:49:57;33.46;34.70
68274;SHT30;55104;47.356;19.448;2022-08-18T16:53:00;33.39;34.71
68274;SHT30;55104;47.356;19.448;2022-08-18T16:56:02;33.29;34.71
68274;SHT30;55104;47.356;19.448;2022-08-18T16:59:05;33.16;35.35
68274;SHT30;55104;47.356;19.448;2022-08-18T17:02:25;32.95;36.53
68274;SHT30;55104;47.356;19.448;2022-08-18T17:05:45;32.84;35.60
68274;SHT30;55104;47.356;19.448;2022-08-18T17:08:48;32.68;36.45
68274;SHT30;55104;47.356;19.448;2022-08-18T17:11:51;32.47;37.28
68274;SHT30;55104;47.356;19.448;2022-08-18T17:14:54;32.29;37.45
68274;SHT30;55104;47.356;19.448;2022-08-18T17:17:56;32.13;37.72
68274;SHT30;55104;47.356;19.448;2022-08-18T17:21:06;31.91;38.11
68274;SHT30;55104;47.356;19.448;2022-08-18T17:24:09;31.75;38.36
68274;SHT30;55104;47.356;19.448;2022-08-18T17:27:27;31.55;39.72
68274;SHT30;55104;47.356;19.448;2022-08-18T17:30:45;31.37;39.89
68274;SHT30;55104;47.356;19.448;2022-08-18T17:33:50;31.17;40.84
68274;SHT30;55104;47.356;19.448;2022-08-18T17:36:55;31.12;39.27
68274;SHT30;55104;47.356;19.448;2022-08-18T17:40:06;31.12;38.19
68274;SHT30;55104;47.356;19.448;2022-08-18T17:43:15;31.03;38.36
68274;SHT30;55104;47.356;19.448;2022-08-18T17:46:20;30.93;38.40
68274;SHT30;55104;47.356;19.448;2022-08-18T17:49:32;30.82;38.13
68274;SHT30;55104;47.356;19.448;2022-08-18T17:53:14;30.62;38.62
68274;SHT30;55104;47.356;19.448;2022-08-18T17:56:24;30.51;38.41
68274;SHT30;55104;47.356;19.448;2022-08-18T18:02:57;30.30;38.71
68274;SHT30;55104;47.356;19.448;2022-08-18T18:09:30;30.16;38.66
68274;SHT30;55104;47.356;19.448;2022-08-18T18:12:34;30.05;39.07
68274;SHT30;55104;47.356;19.448;2022-08-18T18:15:43;29.92;39.15
68274;SHT30;55104;47.356;19.448;2022-08-18T18:18:53;29.83;39.33
68274;SHT30;55104;47.356;19.448;2022-08-18T18:22:06;29.72;39.36
68274;SHT30;55104;47.356;19.448;2022-08-18T18:25:11;29.62;39.78
68274;SHT30;55104;47.356;19.448;2022-08-18T18:28:26;29.55;40.43
68274;SHT30;55104;47.356;19.448;2022-08-18T18:31:30;29.41;40.65
68274;SHT30;55104;47.356;19.448;2022-08-18T18:34:38;29.30;40.83
68274;SHT30;55104;47.356;19.448;2022-08-18T18:37:53;29.17;41.16
68274;SHT30;55104;47.356;19.448;2022-08-18T18:44:11;28.88;42.91
68274;SHT30;55104;47.356;19.448;2022-08-18T18:47:31;28.72;43.55
68274;SHT30;55104;47.356;19.448;2022-08-18T18:50:54;28.66;42.51
68274;SHT30;55104;47.356;19.448;2022-08-18T19:00:48;28.62;42.34
68274;SHT30;55104;47.356;19.448;2022-08-18T19:04:02;28.78;42.09
68274;SHT30;55104;47.356;19.448;2022-08-18T19:07:14;28.79;42.43
68274;SHT30;55104;47.356;19.448;2022-08-18T19:14:19;28.70;43.01
68274;SHT30;55104;47.356;19.448;2022-08-18T19:17:39;28.62;43.42
68274;SHT30;55104;47.356;19.448;2022-08-18T19:20:43;28.70;43.53
68274;SHT30;55104;47.356;19.448;2022-08-18T19:24:19;28.66;43.96
68274;SHT30;55104;47.356;19.448;2022-08-18T19:27:36;28.59;44.17
68274;SHT30;55104;47.356;19.448;2022-08-18T19:30:44;28.69;44.02
68274;SHT30;55104;47.356;19.448;2022-08-18T19:33:52;28.63;44.32
68274;SHT30;55104;47.356;19.448;2022-08-18T19:40:43;28.63;44.57
68274;SHT30;55104;47.356;19.448;2022-08-18T19:47:32;28.65;44.72
68274;SHT30;55104;47.356;19.448;2022-08-18T19:50:59;28.61;44.86
68274;SHT30;55104;47.356;19.448;2022-08-18T19:54:39;28.66;44.61
68274;SHT30;55104;47.356;19.448;2022-08-18T19:57:58;28.61;44.72
68274;SHT30;55104;47.356;19.448;2022-08-18T20:01:08;28.56;44.95
68274;SHT30;55104;47.356;19.448;2022-08-18T20:15:15;28.52;45.09
68274;SHT30;55104;47.356;19.448;2022-08-18T20:18:29;28.42;45.30
68274;SHT30;55104;47.356;19.448;2022-08-18T20:21:43;28.34;45.47
68274;SHT30;55104;47.356;19.448;2022-08-18T20:28:21;28.33;45.75
68274;SHT30;55104;47.356;19.448;2022-08-18T20:31:45;28.28;45.73
68274;SHT30;55104;47.356;19.448;2022-08-18T20:34:49;28.22;45.98
68274;SHT30;55104;47.356;19.448;2022-08-18T20:38:31;28.21;45.80
68274;SHT30;55104;47.356;19.448;2022-08-18T20:41:43;28.11;46.09
68274;SHT30;55104;47.356;19.448;2022-08-18T20:48:20;28.03;46.52
68274;SHT30;55104;47.356;19.448;2022-08-18T20:51:24;27.98;46.62
68274;SHT30;55104;47.356;19.448;2022-08-18T20:54:41;27.96;46.61
68274;SHT30;55104;47.356;19.448;2022-08-18T20:58:05;28.01;46.56
68274;SHT30;55104;47.356;19.448;2022-08-18T21:01:10;27.97;46.65
68274;SHT30;55104;47.356;19.448;2022-08-18T21:04:14;27.98;46.44
68274;SHT30;55104;47.356;19.448;2022-08-18T21:07:28;27.97;46.78
68274;SHT30;55104;47.356;19.448;2022-08-18T21:10:48;27.96;46.48
68274;SHT30;55104;47.356;19.448;2022-08-18T21:13:53;27.94;46.54
68274;SHT30;55104;47.356;19.448;2022-08-18T21:16:57;27.89;46.54
68274;SHT30;55104;47.356;19.448;2022-08-18T21:20:06;27.89;46.83
68274;SHT30;55104;47.356;19.448;2022-08-18T21:23:11;27.90;47.04
68274;SHT30;55104;47.356;19.448;2022-08-18T21:26:14;27.89;46.81
68274;SHT30;55104;47.356;19.448;2022-08-18T21:29:17;27.86;46.94
68274;SHT30;55104;47.356;19.448;2022-08-18T21:32:26;27.79;47.23
68274;SHT30;55104;47.356;19.448;2022-08-18T21:35:31;27.73;47.45
68274;SHT30;55104;47.356;19.448;2022-08-18T21:38:33;27.72;47.33
68274;SHT30;55104;47.356;19.448;2022-08-18T21:41:44;27.72;47.50
68274;SHT30;55104;47.356;19.448;2022-08-18T21:44:50;27.66;47.83
68274;SHT30;55104;47.356;19.448;2022-08-18T21:47:57;27.58;47.83
68274;SHT30;55104;47.356;19.448;2022-08-18T21:51:02;27.58;48.13
68274;SHT30;55104;47.356;19.448;2022-08-18T21:54:07;27.49;48.17
68274;SHT30;55104;47.356;19.448;2022-08-18T22:00:34;27.46;48.73
68274;SHT30;55104;47.356;19.448;2022-08-18T22:03:57;27.41;48.99
68274;SHT30;55104;47.356;19.448;2022-08-18T22:07:10;27.41;48.87
68274;SHT30;55104;47.356;19.448;2022-08-18T22:10:34;27.32;49.01
68274;SHT30;55104;47.356;19.448;2022-08-18T22:13:55;27.31;49.33
68274;SHT30;55104;47.356;19.448;2022-08-18T22:20:52;27.28;49.33
68274;SHT30;55104;47.356;19.448;2022-08-18T22:23:55;27.18;49.69
68274;SHT30;55104;47.356;19.448;2022-08-18T22:27:19;27.10;49.78
68274;SHT30;55104;47.356;19.448;2022-08-18T22:30:22;26.97;50.10
68274;SHT30;55104;47.356;19.448;2022-08-18T22:33:24;26.96;50.29
68274;SHT30;55104;47.356;19.448;2022-08-18T22:36:27;26.80;50.75
68274;SHT30;55104;47.356;19.448;2022-08-18T22:39:51;26.73;51.03